KLAL

Lakeland Linder Regional Airport

Lakeland, Florida, USA
METAR KLAL 200650Z 11008KT 10SM SKC 21/20 A3029
Observed Flight Rules
Feb-20 @ 06:50 UTC (39 minutes ago) Visual Flight Rules
Wind Visibility Clouds
110° at 8 knots 10 miles
  • Clear skies
Temperatures Readings
Current 21°C / 70°F
Dewpoint 20°C / 68°F
Humidity 94%
Altimeter 30.29" Hg
Pressure 1026 hPa
Elevation 43
METAR KLAL 200650Z 11008KT 10SM SKC 21/20 A3029
Observed Flight Rules
Feb-20 @ 06:50 UTC
(39 minutes ago)
VFR
Wind Visibility
110° at 8 knots 10 miles
Clouds
  • Clear skies
Temperature Dewpoint
21°C / 70°F 20°C / 68°F
Humidity Altimeter Pressure
94% 30.29" Hg 1026 hPa